sensor_id;sensor_type;location;lat;lon;timestamp;P1;durP1;ratioP1;P2;durP2;ratioP2
10432;SDS011;5263;48.680;9.004;2023-03-07T00:00:49;13.87;;;7.93;;
10432;SDS011;5263;48.680;9.004;2023-03-07T00:03:15;10.17;;;7.60;;
10432;SDS011;5263;48.680;9.004;2023-03-07T00:05:41;12.03;;;7.53;;
10432;SDS011;5263;48.680;9.004;2023-03-07T00:08:07;9.43;;;6.93;;
10432;SDS011;5263;48.680;9.004;2023-03-07T00:10:34;11.27;;;7.00;;
10432;SDS011;5263;48.680;9.004;2023-03-07T00:12:59;13.10;;;8.30;;
10432;SDS011;5263;48.680;9.004;2023-03-07T00:15:25;10.80;;;7.77;;
10432;SDS011;5263;48.680;9.004;2023-03-07T00:17:50;12.40;;;7.77;;
10432;SDS011;5263;48.680;9.004;2023-03-07T00:20:16;13.53;;;8.37;;
10432;SDS011;5263;48.680;9.004;2023-03-07T00:22:42;16.30;;;8.77;;
10432;SDS011;5263;48.680;9.004;2023-03-07T00:25:08;11.83;;;7.43;;
10432;SDS011;5263;48.680;9.004;2023-03-07T00:27:34;12.03;;;8.07;;
10432;SDS011;5263;48.680;9.004;2023-03-07T00:30:01;11.60;;;8.37;;
10432;SDS011;5263;48.680;9.004;2023-03-07T00:32:28;11.77;;;7.70;;
10432;SDS011;5263;48.680;9.004;2023-03-07T00:34:54;13.77;;;8.20;;
10432;SDS011;5263;48.680;9.004;2023-03-07T00:37:21;10.60;;;7.73;;
10432;SDS011;5263;48.680;9.004;2023-03-07T00:39:47;12.40;;;8.30;;
10432;SDS011;5263;48.680;9.004;2023-03-07T00:42:13;8.87;;;7.23;;
10432;SDS011;5263;48.680;9.004;2023-03-07T00:44:39;8.47;;;6.47;;
10432;SDS011;5263;48.680;9.004;2023-03-07T00:47:04;9.17;;;7.10;;
10432;SDS011;5263;48.680;9.004;2023-03-07T00:49:30;12.23;;;6.27;;
10432;SDS011;5263;48.680;9.004;2023-03-07T00:51:56;10.17;;;7.47;;
10432;SDS011;5263;48.680;9.004;2023-03-07T00:54:21;10.83;;;7.53;;
10432;SDS011;5263;48.680;9.004;2023-03-07T00:56:47;11.43;;;7.87;;
10432;SDS011;5263;48.680;9.004;2023-03-07T00:59:12;11.33;;;7.57;;
10432;SDS011;5263;48.680;9.004;2023-03-07T01:01:38;10.13;;;7.10;;
10432;SDS011;5263;48.680;9.004;2023-03-07T01:04:05;8.73;;;6.43;;
10432;SDS011;5263;48.680;9.004;2023-03-07T01:06:31;9.90;;;6.17;;
10432;SDS011;5263;48.680;9.004;2023-03-07T01:08:58;10.80;;;6.80;;
10432;SDS011;5263;48.680;9.004;2023-03-07T01:11:26;9.10;;;6.47;;
10432;SDS011;5263;48.680;9.004;2023-03-07T01:13:56;9.20;;;6.50;;
10432;SDS011;5263;48.680;9.004;2023-03-07T01:16:27;9.83;;;6.40;;
10432;SDS011;5263;48.680;9.004;2023-03-07T01:18:55;8.57;;;6.03;;
10432;SDS011;5263;48.680;9.004;2023-03-07T01:21:56;9.07;;;6.90;;
10432;SDS011;5263;48.680;9.004;2023-03-07T01:24:14;7.77;;;5.67;;
10432;SDS011;5263;48.680;9.004;2023-03-07T01:26:40;11.17;;;6.50;;
10432;SDS011;5263;48.680;9.004;2023-03-07T01:29:07;12.23;;;7.53;;
10432;SDS011;5263;48.680;9.004;2023-03-07T01:31:34;10.17;;;6.33;;
10432;SDS011;5263;48.680;9.004;2023-03-07T01:34:01;10.50;;;7.57;;
10432;SDS011;5263;48.680;9.004;2023-03-07T01:36:28;8.23;;;6.40;;
10432;SDS011;5263;48.680;9.004;2023-03-07T01:38:57;9.87;;;7.17;;
10432;SDS011;5263;48.680;9.004;2023-03-07T01:41:30;6.67;;;5.77;;
10432;SDS011;5263;48.680;9.004;2023-03-07T01:44:00;9.77;;;6.93;;
10432;SDS011;5263;48.680;9.004;2023-03-07T01:46:32;10.50;;;6.43;;
10432;SDS011;5263;48.680;9.004;2023-03-07T01:49:12;11.27;;;7.13;;
10432;SDS011;5263;48.680;9.004;2023-03-07T01:51:39;13.03;;;7.20;;
10432;SDS011;5263;48.680;9.004;2023-03-07T01:54:08;13.00;;;7.20;;
10432;SDS011;5263;48.680;9.004;2023-03-07T01:56:36;9.00;;;6.57;;
10432;SDS011;5263;48.680;9.004;2023-03-07T01:59:03;10.37;;;7.53;;
10432;SDS011;5263;48.680;9.004;2023-03-07T02:01:30;11.07;;;7.00;;
10432;SDS011;5263;48.680;9.004;2023-03-07T02:03:58;11.07;;;7.73;;
10432;SDS011;5263;48.680;9.004;2023-03-07T02:06:32;9.50;;;7.00;;
10432;SDS011;5263;48.680;9.004;2023-03-07T02:09:01;11.10;;;7.20;;
10432;SDS011;5263;48.680;9.004;2023-03-07T02:11:27;11.33;;;7.10;;
10432;SDS011;5263;48.680;9.004;2023-03-07T02:13:53;11.17;;;7.93;;
10432;SDS011;5263;48.680;9.004;2023-03-07T02:16:19;9.13;;;5.90;;
10432;SDS011;5263;48.680;9.004;2023-03-07T02:18:45;10.77;;;6.97;;
10432;SDS011;5263;48.680;9.004;2023-03-07T02:21:18;11.07;;;7.17;;
10432;SDS011;5263;48.680;9.004;2023-03-07T02:29:06;9.10;;;6.60;;
10432;SDS011;5263;48.680;9.004;2023-03-07T02:31:31;10.13;;;7.67;;
10432;SDS011;5263;48.680;9.004;2023-03-07T02:33:57;10.30;;;7.30;;
10432;SDS011;5263;48.680;9.004;2023-03-07T02:36:25;9.37;;;6.83;;
10432;SDS011;5263;48.680;9.004;2023-03-07T02:38:55;10.50;;;7.47;;
10432;SDS011;5263;48.680;9.004;2023-03-07T02:41:23;11.30;;;8.53;;
10432;SDS011;5263;48.680;9.004;2023-03-07T02:43:52;12.43;;;7.73;;
10432;SDS011;5263;48.680;9.004;2023-03-07T02:46:18;11.50;;;8.43;;
10432;SDS011;5263;48.680;9.004;2023-03-07T02:48:44;9.20;;;6.10;;
10432;SDS011;5263;48.680;9.004;2023-03-07T02:51:10;9.43;;;7.17;;
10432;SDS011;5263;48.680;9.004;2023-03-07T02:53:36;10.27;;;7.73;;
10432;SDS011;5263;48.680;9.004;2023-03-07T02:56:01;11.07;;;6.70;;
10432;SDS011;5263;48.680;9.004;2023-03-07T02:58:27;12.00;;;8.40;;
10432;SDS011;5263;48.680;9.004;2023-03-07T03:00:53;8.97;;;6.90;;
10432;SDS011;5263;48.680;9.004;2023-03-07T03:03:19;10.07;;;7.47;;
10432;SDS011;5263;48.680;9.004;2023-03-07T03:05:44;10.83;;;8.37;;
10432;SDS011;5263;48.680;9.004;2023-03-07T03:08:10;11.17;;;8.00;;
10432;SDS011;5263;48.680;9.004;2023-03-07T03:10:36;10.73;;;7.73;;
10432;SDS011;5263;48.680;9.004;2023-03-07T03:13:02;10.70;;;7.90;;
10432;SDS011;5263;48.680;9.004;2023-03-07T03:15:28;10.17;;;8.50;;
10432;SDS011;5263;48.680;9.004;2023-03-07T03:17:53;9.80;;;7.80;;
10432;SDS011;5263;48.680;9.004;2023-03-07T03:20:19;9.83;;;7.43;;
10432;SDS011;5263;48.680;9.004;2023-03-07T03:22:44;13.00;;;7.90;;
10432;SDS011;5263;48.680;9.004;2023-03-07T03:25:11;10.47;;;7.50;;
10432;SDS011;5263;48.680;9.004;2023-03-07T03:27:38;10.23;;;7.43;;
10432;SDS011;5263;48.680;9.004;2023-03-07T03:30:05;11.03;;;7.73;;
10432;SDS011;5263;48.680;9.004;2023-03-07T03:32:31;9.43;;;7.20;;
10432;SDS011;5263;48.680;9.004;2023-03-07T03:34:57;11.37;;;8.23;;
10432;SDS011;5263;48.680;9.004;2023-03-07T03:37:23;12.83;;;7.53;;
10432;SDS011;5263;48.680;9.004;2023-03-07T03:39:51;11.77;;;7.73;;
10432;SDS011;5263;48.680;9.004;2023-03-07T03:42:17;9.10;;;7.43;;
10432;SDS011;5263;48.680;9.004;2023-03-07T03:44:42;13.50;;;8.80;;
10432;SDS011;5263;48.680;9.004;2023-03-07T03:47:08;11.30;;;7.20;;
10432;SDS011;5263;48.680;9.004;2023-03-07T03:49:33;11.53;;;7.20;;
10432;SDS011;5263;48.680;9.004;2023-03-07T03:51:59;10.00;;;7.70;;
10432;SDS011;5263;48.680;9.004;2023-03-07T03:54:24;16.20;;;8.07;;
10432;SDS011;5263;48.680;9.004;2023-03-07T03:56:51;15.27;;;7.60;;
10432;SDS011;5263;48.680;9.004;2023-03-07T03:59:18;10.93;;;8.33;;
10432;SDS011;5263;48.680;9.004;2023-03-07T04:01:44;12.43;;;7.33;;
10432;SDS011;5263;48.680;9.004;2023-03-07T04:04:10;9.67;;;7.77;;
10432;SDS011;5263;48.680;9.004;2023-03-07T04:06:35;10.63;;;7.97;;
10432;SDS011;5263;48.680;9.004;2023-03-07T04:09:01;10.83;;;8.30;;
10432;SDS011;5263;48.680;9.004;2023-03-07T04:11:28;11.87;;;8.60;;
10432;SDS011;5263;48.680;9.004;2023-03-07T04:13:54;12.07;;;8.23;;
10432;SDS011;5263;48.680;9.004;2023-03-07T04:16:20;12.60;;;9.00;;
10432;SDS011;5263;48.680;9.004;2023-03-07T04:18:49;11.70;;;8.70;;
10432;SDS011;5263;48.680;9.004;2023-03-07T04:21:15;12.73;;;7.60;;
10432;SDS011;5263;48.680;9.004;2023-03-07T04:23:41;11.50;;;7.43;;
10432;SDS011;5263;48.680;9.004;2023-03-07T04:26:07;14.30;;;9.10;;
10432;SDS011;5263;48.680;9.004;2023-03-07T04:28:35;11.37;;;8.50;;
10432;SDS011;5263;48.680;9.004;2023-03-07T04:31:21;10.03;;;7.80;;
10432;SDS011;5263;48.680;9.004;2023-03-07T04:33:49;12.57;;;8.40;;
10432;SDS011;5263;48.680;9.004;2023-03-07T04:36:15;12.93;;;8.10;;
10432;SDS011;5263;48.680;9.004;2023-03-07T04:38:41;11.03;;;8.20;;
10432;SDS011;5263;48.680;9.004;2023-03-07T04:41:09;11.53;;;8.33;;
10432;SDS011;5263;48.680;9.004;2023-03-07T04:43:37;10.47;;;7.73;;
10432;SDS011;5263;48.680;9.004;2023-03-07T04:46:03;9.07;;;7.80;;
10432;SDS011;5263;48.680;9.004;2023-03-07T04:48:29;11.47;;;7.77;;
10432;SDS011;5263;48.680;9.004;2023-03-07T04:50:54;10.67;;;8.27;;
10432;SDS011;5263;48.680;9.004;2023-03-07T04:53:20;12.67;;;8.77;;
10432;SDS011;5263;48.680;9.004;2023-03-07T04:55:46;11.80;;;8.03;;
10432;SDS011;5263;48.680;9.004;2023-03-07T04:58:12;11.83;;;8.63;;
10432;SDS011;5263;48.680;9.004;2023-03-07T05:00:41;12.13;;;8.40;;
10432;SDS011;5263;48.680;9.004;2023-03-07T05:03:08;11.03;;;8.80;;
10432;SDS011;5263;48.680;9.004;2023-03-07T05:05:35;13.70;;;8.27;;
10432;SDS011;5263;48.680;9.004;2023-03-07T05:08:01;13.50;;;8.53;;
10432;SDS011;5263;48.680;9.004;2023-03-07T05:10:28;10.63;;;7.63;;
10432;SDS011;5263;48.680;9.004;2023-03-07T05:12:54;11.07;;;7.47;;
10432;SDS011;5263;48.680;9.004;2023-03-07T05:15:20;10.67;;;7.37;;
10432;SDS011;5263;48.680;9.004;2023-03-07T05:17:45;10.40;;;7.40;;
10432;SDS011;5263;48.680;9.004;2023-03-07T05:20:11;12.50;;;8.47;;
10432;SDS011;5263;48.680;9.004;2023-03-07T05:22:37;9.13;;;7.07;;
10432;SDS011;5263;48.680;9.004;2023-03-07T05:25:03;11.03;;;7.70;;
10432;SDS011;5263;48.680;9.004;2023-03-07T05:27:29;10.17;;;7.47;;
10432;SDS011;5263;48.680;9.004;2023-03-07T05:29:54;9.77;;;7.93;;
10432;SDS011;5263;48.680;9.004;2023-03-07T05:32:20;12.43;;;8.00;;
10432;SDS011;5263;48.680;9.004;2023-03-07T05:34:46;10.27;;;8.07;;
10432;SDS011;5263;48.680;9.004;2023-03-07T05:37:12;11.63;;;7.83;;
10432;SDS011;5263;48.680;9.004;2023-03-07T05:39:38;10.43;;;7.20;;
10432;SDS011;5263;48.680;9.004;2023-03-07T05:42:03;11.23;;;7.57;;
10432;SDS011;5263;48.680;9.004;2023-03-07T05:44:29;12.97;;;7.63;;
10432;SDS011;5263;48.680;9.004;2023-03-07T05:46:55;11.00;;;7.63;;
10432;SDS011;5263;48.680;9.004;2023-03-07T05:49:20;9.87;;;7.17;;
10432;SDS011;5263;48.680;9.004;2023-03-07T05:51:46;11.33;;;7.53;;
10432;SDS011;5263;48.680;9.004;2023-03-07T05:54:12;13.23;;;8.73;;
10432;SDS011;5263;48.680;9.004;2023-03-07T05:56:37;9.83;;;6.60;;
10432;SDS011;5263;48.680;9.004;2023-03-07T05:59:03;10.87;;;7.87;;
10432;SDS011;5263;48.680;9.004;2023-03-07T06:01:31;10.47;;;7.37;;
10432;SDS011;5263;48.680;9.004;2023-03-07T06:03:57;12.50;;;7.47;;
10432;SDS011;5263;48.680;9.004;2023-03-07T06:06:23;9.43;;;6.73;;
10432;SDS011;5263;48.680;9.004;2023-03-07T06:08:49;9.63;;;6.50;;
10432;SDS011;5263;48.680;9.004;2023-03-07T06:11:14;8.90;;;6.57;;
10432;SDS011;5263;48.680;9.004;2023-03-07T06:13:40;12.47;;;6.80;;
10432;SDS011;5263;48.680;9.004;2023-03-07T06:16:05;9.93;;;6.20;;
10432;SDS011;5263;48.680;9.004;2023-03-07T06:18:31;8.63;;;6.40;;
10432;SDS011;5263;48.680;9.004;2023-03-07T06:20:57;11.10;;;6.60;;
10432;SDS011;5263;48.680;9.004;2023-03-07T06:23:25;9.07;;;6.80;;
10432;SDS011;5263;48.680;9.004;2023-03-07T06:25:53;9.73;;;6.83;;
10432;SDS011;5263;48.680;9.004;2023-03-07T06:28:18;11.07;;;6.80;;
10432;SDS011;5263;48.680;9.004;2023-03-07T06:30:44;10.80;;;6.40;;
10432;SDS011;5263;48.680;9.004;2023-03-07T06:33:11;11.73;;;7.10;;
10432;SDS011;5263;48.680;9.004;2023-03-07T06:35:40;13.03;;;7.17;;
10432;SDS011;5263;48.680;9.004;2023-03-07T06:38:09;9.70;;;6.13;;
10432;SDS011;5263;48.680;9.004;2023-03-07T06:40:35;10.27;;;6.93;;
10432;SDS011;5263;48.680;9.004;2023-03-07T06:43:01;7.20;;;6.13;;
10432;SDS011;5263;48.680;9.004;2023-03-07T06:45:27;11.33;;;6.07;;
10432;SDS011;5263;48.680;9.004;2023-03-07T06:47:53;13.00;;;7.53;;
10432;SDS011;5263;48.680;9.004;2023-03-07T06:50:18;10.87;;;6.83;;
10432;SDS011;5263;48.680;9.004;2023-03-07T06:52:44;10.43;;;6.87;;
10432;SDS011;5263;48.680;9.004;2023-03-07T06:55:10;7.83;;;6.13;;
10432;SDS011;5263;48.680;9.004;2023-03-07T06:57:36;9.07;;;6.53;;
10432;SDS011;5263;48.680;9.004;2023-03-07T07:00:05;10.90;;;5.57;;
10432;SDS011;5263;48.680;9.004;2023-03-07T07:02:31;8.23;;;6.53;;
10432;SDS011;5263;48.680;9.004;2023-03-07T07:04:57;9.07;;;6.80;;
10432;SDS011;5263;48.680;9.004;2023-03-07T07:07:23;9.23;;;6.13;;
10432;SDS011;5263;48.680;9.004;2023-03-07T07:09:49;8.83;;;6.03;;
10432;SDS011;5263;48.680;9.004;2023-03-07T07:12:14;9.83;;;6.57;;
10432;SDS011;5263;48.680;9.004;2023-03-07T07:14:40;9.93;;;6.80;;
10432;SDS011;5263;48.680;9.004;2023-03-07T07:17:06;9.43;;;6.20;;
10432;SDS011;5263;48.680;9.004;2023-03-07T07:19:32;10.73;;;6.60;;
10432;SDS011;5263;48.680;9.004;2023-03-07T07:21:58;10.80;;;7.20;;
10432;SDS011;5263;48.680;9.004;2023-03-07T07:24:23;9.13;;;6.23;;
10432;SDS011;5263;48.680;9.004;2023-03-07T07:26:49;9.10;;;6.47;;
10432;SDS011;5263;48.680;9.004;2023-03-07T07:29:14;8.97;;;6.13;;
10432;SDS011;5263;48.680;9.004;2023-03-07T07:31:40;6.40;;;5.23;;
10432;SDS011;5263;48.680;9.004;2023-03-07T07:34:06;10.23;;;6.60;;
10432;SDS011;5263;48.680;9.004;2023-03-07T07:36:32;9.10;;;6.30;;
10432;SDS011;5263;48.680;9.004;2023-03-07T07:38:58;7.77;;;6.70;;
10432;SDS011;5263;48.680;9.004;2023-03-07T07:41:29;10.83;;;6.97;;
10432;SDS011;5263;48.680;9.004;2023-03-07T07:43:55;13.20;;;6.17;;
10432;SDS011;5263;48.680;9.004;2023-03-07T07:46:21;12.57;;;8.20;;
10432;SDS011;5263;48.680;9.004;2023-03-07T07:48:48;8.80;;;5.50;;
10432;SDS011;5263;48.680;9.004;2023-03-07T07:51:14;9.40;;;6.50;;
10432;SDS011;5263;48.680;9.004;2023-03-07T07:53:39;12.93;;;7.60;;
10432;SDS011;5263;48.680;9.004;2023-03-07T07:56:05;9.10;;;6.13;;
10432;SDS011;5263;48.680;9.004;2023-03-07T07:58:31;10.30;;;7.10;;
10432;SDS011;5263;48.680;9.004;2023-03-07T08:00:56;9.00;;;6.40;;
10432;SDS011;5263;48.680;9.004;2023-03-07T08:03:22;11.60;;;6.23;;
10432;SDS011;5263;48.680;9.004;2023-03-07T08:05:48;10.30;;;7.37;;
10432;SDS011;5263;48.680;9.004;2023-03-07T08:08:14;9.60;;;7.47;;
10432;SDS011;5263;48.680;9.004;2023-03-07T08:10:41;6.93;;;6.23;;
10432;SDS011;5263;48.680;9.004;2023-03-07T08:13:10;7.33;;;6.30;;
10432;SDS011;5263;48.680;9.004;2023-03-07T08:15:37;8.07;;;6.67;;
10432;SDS011;5263;48.680;9.004;2023-03-07T08:18:03;9.60;;;6.10;;
10432;SDS011;5263;48.680;9.004;2023-03-07T08:20:29;8.73;;;7.43;;
10432;SDS011;5263;48.680;9.004;2023-03-07T08:22:54;8.00;;;5.53;;
10432;SDS011;5263;48.680;9.004;2023-03-07T08:25:20;8.23;;;6.80;;
10432;SDS011;5263;48.680;9.004;2023-03-07T08:27:48;10.07;;;6.10;;
10432;SDS011;5263;48.680;9.004;2023-03-07T08:30:19;8.63;;;5.83;;
10432;SDS011;5263;48.680;9.004;2023-03-07T08:32:55;8.07;;;6.47;;
10432;SDS011;5263;48.680;9.004;2023-03-07T08:35:21;8.10;;;6.40;;
10432;SDS011;5263;48.680;9.004;2023-03-07T08:37:47;8.67;;;5.73;;
10432;SDS011;5263;48.680;9.004;2023-03-07T08:40:17;9.70;;;6.33;;
10432;SDS011;5263;48.680;9.004;2023-03-07T08:42:42;7.90;;;5.90;;
10432;SDS011;5263;48.680;9.004;2023-03-07T08:45:08;13.37;;;6.37;;
10432;SDS011;5263;48.680;9.004;2023-03-07T08:47:34;9.60;;;5.90;;
10432;SDS011;5263;48.680;9.004;2023-03-07T08:50:00;9.73;;;6.60;;
10432;SDS011;5263;48.680;9.004;2023-03-07T08:52:26;6.80;;;4.97;;
10432;SDS011;5263;48.680;9.004;2023-03-07T08:54:52;7.93;;;5.13;;
10432;SDS011;5263;48.680;9.004;2023-03-07T08:57:17;9.80;;;5.87;;
10432;SDS011;5263;48.680;9.004;2023-03-07T08:59:43;7.40;;;5.00;;
10432;SDS011;5263;48.680;9.004;2023-03-07T09:02:09;5.83;;;5.10;;
10432;SDS011;5263;48.680;9.004;2023-03-07T09:04:35;6.67;;;4.83;;
10432;SDS011;5263;48.680;9.004;2023-03-07T09:07:01;8.87;;;4.77;;
10432;SDS011;5263;48.680;9.004;2023-03-07T09:09:27;6.53;;;4.60;;
10432;SDS011;5263;48.680;9.004;2023-03-07T09:11:53;6.53;;;4.83;;
10432;SDS011;5263;48.680;9.004;2023-03-07T09:14:19;5.73;;;4.13;;
10432;SDS011;5263;48.680;9.004;2023-03-07T09:16:44;6.77;;;4.03;;
10432;SDS011;5263;48.680;9.004;2023-03-07T09:19:10;10.10;;;5.47;;
10432;SDS011;5263;48.680;9.004;2023-03-07T09:21:36;7.00;;;3.97;;
10432;SDS011;5263;48.680;9.004;2023-03-07T09:24:01;6.23;;;4.83;;
10432;SDS011;5263;48.680;9.004;2023-03-07T09:26:28;8.27;;;5.33;;
10432;SDS011;5263;48.680;9.004;2023-03-07T09:28:53;7.03;;;4.50;;
10432;SDS011;5263;48.680;9.004;2023-03-07T09:31:19;6.57;;;4.80;;
10432;SDS011;5263;48.680;9.004;2023-03-07T09:33:45;6.90;;;5.17;;
10432;SDS011;5263;48.680;9.004;2023-03-07T09:36:11;6.33;;;4.53;;
10432;SDS011;5263;48.680;9.004;2023-03-07T09:38:36;6.17;;;4.43;;
10432;SDS011;5263;48.680;9.004;2023-03-07T09:43:49;7.60;;;4.53;;
10432;SDS011;5263;48.680;9.004;2023-03-07T09:51:50;6.40;;;4.97;;
10432;SDS011;5263;48.680;9.004;2023-03-07T09:54:19;5.73;;;4.73;;
10432;SDS011;5263;48.680;9.004;2023-03-07T09:57:06;7.83;;;4.30;;
10432;SDS011;5263;48.680;9.004;2023-03-07T09:59:52;7.47;;;5.97;;
10432;SDS011;5263;48.680;9.004;2023-03-07T10:02:46;6.00;;;5.13;;
10432;SDS011;5263;48.680;9.004;2023-03-07T10:07:55;6.43;;;5.20;;
10432;SDS011;5263;48.680;9.004;2023-03-07T10:10:22;7.57;;;5.20;;
10432;SDS011;5263;48.680;9.004;2023-03-07T10:13:12;6.50;;;5.50;;
10432;SDS011;5263;48.680;9.004;2023-03-07T10:15:51;7.87;;;5.37;;
10432;SDS011;5263;48.680;9.004;2023-03-07T10:18:22;7.10;;;4.60;;
10432;SDS011;5263;48.680;9.004;2023-03-07T10:29:21;6.60;;;4.63;;
10432;SDS011;5263;48.680;9.004;2023-03-07T10:32:36;5.93;;;5.33;;
10432;SDS011;5263;48.680;9.004;2023-03-07T10:34:54;6.77;;;4.80;;
10432;SDS011;5263;48.680;9.004;2023-03-07T10:38:01;10.57;;;5.93;;
10432;SDS011;5263;48.680;9.004;2023-03-07T10:40:32;6.40;;;4.90;;
10432;SDS011;5263;48.680;9.004;2023-03-07T10:43:03;6.20;;;4.70;;
10432;SDS011;5263;48.680;9.004;2023-03-07T10:45:30;9.43;;;4.57;;
10432;SDS011;5263;48.680;9.004;2023-03-07T10:48:04;5.33;;;4.20;;
10432;SDS011;5263;48.680;9.004;2023-03-07T10:53:54;7.37;;;4.67;;
10432;SDS011;5263;48.680;9.004;2023-03-07T10:56:20;6.37;;;4.70;;
10432;SDS011;5263;48.680;9.004;2023-03-07T10:59:00;7.23;;;4.17;;
10432;SDS011;5263;48.680;9.004;2023-03-07T11:01:34;5.30;;;3.67;;
10432;SDS011;5263;48.680;9.004;2023-03-07T11:04:05;5.50;;;4.87;;
10432;SDS011;5263;48.680;9.004;2023-03-07T11:14:29;7.13;;;4.73;;
10432;SDS011;5263;48.680;9.004;2023-03-07T11:16:58;6.10;;;4.80;;
10432;SDS011;5263;48.680;9.004;2023-03-07T11:24:58;6.10;;;4.40;;
10432;SDS011;5263;48.680;9.004;2023-03-07T11:27:48;6.47;;;4.67;;
10432;SDS011;5263;48.680;9.004;2023-03-07T11:30:19;8.17;;;4.93;;
10432;SDS011;5263;48.680;9.004;2023-03-07T11:32:53;8.27;;;4.33;;
10432;SDS011;5263;48.680;9.004;2023-03-07T11:35:25;7.20;;;5.67;;
10432;SDS011;5263;48.680;9.004;2023-03-07T11:38:06;6.83;;;5.43;;
10432;SDS011;5263;48.680;9.004;2023-03-07T11:40:56;7.77;;;5.30;;
10432;SDS011;5263;48.680;9.004;2023-03-07T11:43:45;8.10;;;4.27;;
10432;SDS011;5263;48.680;9.004;2023-03-07T11:49:02;6.03;;;4.20;;
10432;SDS011;5263;48.680;9.004;2023-03-07T12:03:07;6.40;;;5.03;;
10432;SDS011;5263;48.680;9.004;2023-03-07T12:05:55;9.00;;;5.40;;
10432;SDS011;5263;48.680;9.004;2023-03-07T12:11:22;10.17;;;6.10;;
10432;SDS011;5263;48.680;9.004;2023-03-07T12:21:53;5.97;;;5.20;;
10432;SDS011;5263;48.680;9.004;2023-03-07T12:24:30;7.63;;;4.73;;
10432;SDS011;5263;48.680;9.004;2023-03-07T12:27:22;5.03;;;4.53;;
10432;SDS011;5263;48.680;9.004;2023-03-07T12:29:58;6.30;;;4.00;;
10432;SDS011;5263;48.680;9.004;2023-03-07T12:32:29;6.67;;;4.03;;
10432;SDS011;5263;48.680;9.004;2023-03-07T12:34:58;6.33;;;4.67;;
10432;SDS011;5263;48.680;9.004;2023-03-07T12:40:43;6.80;;;4.37;;
10432;SDS011;5263;48.680;9.004;2023-03-07T12:43:20;6.30;;;4.43;;
10432;SDS011;5263;48.680;9.004;2023-03-07T12:51:32;5.47;;;4.47;;
10432;SDS011;5263;48.680;9.004;2023-03-07T12:54:13;4.60;;;3.33;;
10432;SDS011;5263;48.680;9.004;2023-03-07T12:56:53;7.93;;;3.73;;
10432;SDS011;5263;48.680;9.004;2023-03-07T12:59:28;4.97;;;2.33;;
10432;SDS011;5263;48.680;9.004;2023-03-07T13:04:33;3.47;;;3.17;;
10432;SDS011;5263;48.680;9.004;2023-03-07T13:07:17;2.47;;;2.27;;
10432;SDS011;5263;48.680;9.004;2023-03-07T13:09:48;3.43;;;2.90;;
10432;SDS011;5263;48.680;9.004;2023-03-07T13:14:47;3.33;;;2.83;;
10432;SDS011;5263;48.680;9.004;2023-03-07T13:25:35;4.37;;;3.07;;
10432;SDS011;5263;48.680;9.004;2023-03-07T13:27:52;4.53;;;3.07;;
10432;SDS011;5263;48.680;9.004;2023-03-07T13:30:19;3.60;;;3.13;;
10432;SDS011;5263;48.680;9.004;2023-03-07T13:42:49;3.13;;;2.83;;
10432;SDS011;5263;48.680;9.004;2023-03-07T13:48:03;3.50;;;2.70;;
10432;SDS011;5263;48.680;9.004;2023-03-07T13:53:18;4.10;;;3.03;;
10432;SDS011;5263;48.680;9.004;2023-03-07T14:06:42;3.67;;;2.50;;
10432;SDS011;5263;48.680;9.004;2023-03-07T14:09:17;2.93;;;2.33;;
10432;SDS011;5263;48.680;9.004;2023-03-07T14:11:58;5.53;;;2.63;;
10432;SDS011;5263;48.680;9.004;2023-03-07T14:22:26;3.00;;;2.30;;
10432;SDS011;5263;48.680;9.004;2023-03-07T14:25:17;2.60;;;2.40;;
10432;SDS011;5263;48.680;9.004;2023-03-07T14:28:16;3.20;;;2.90;;
10432;SDS011;5263;48.680;9.004;2023-03-07T14:31:10;4.95;;;2.90;;
10432;SDS011;5263;48.680;9.004;2023-03-07T14:33:43;2.57;;;2.00;;
10432;SDS011;5263;48.680;9.004;2023-03-07T14:36:18;6.07;;;1.93;;
10432;SDS011;5263;48.680;9.004;2023-03-07T14:38:47;2.47;;;1.60;;
10432;SDS011;5263;48.680;9.004;2023-03-07T14:52:25;4.00;;;1.73;;
10432;SDS011;5263;48.680;9.004;2023-03-07T14:54:51;1.97;;;1.77;;
10432;SDS011;5263;48.680;9.004;2023-03-07T14:57:22;3.30;;;2.17;;
10432;SDS011;5263;48.680;9.004;2023-03-07T15:02:34;2.03;;;1.87;;
10432;SDS011;5263;48.680;9.004;2023-03-07T15:05:00;2.43;;;1.70;;
10432;SDS011;5263;48.680;9.004;2023-03-07T15:07:26;2.13;;;1.90;;
10432;SDS011;5263;48.680;9.004;2023-03-07T15:09:52;7.90;;;3.80;;
10432;SDS011;5263;48.680;9.004;2023-03-07T15:12:19;2.27;;;1.50;;
10432;SDS011;5263;48.680;9.004;2023-03-07T15:14:51;2.03;;;1.87;;
10432;SDS011;5263;48.680;9.004;2023-03-07T15:17:23;3.20;;;2.07;;
10432;SDS011;5263;48.680;9.004;2023-03-07T15:19:55;1.70;;;1.50;;
10432;SDS011;5263;48.680;9.004;2023-03-07T15:22:35;2.97;;;1.57;;
10432;SDS011;5263;48.680;9.004;2023-03-07T15:25:04;2.47;;;1.83;;
10432;SDS011;5263;48.680;9.004;2023-03-07T15:27:31;2.33;;;1.47;;
10432;SDS011;5263;48.680;9.004;2023-03-07T15:30:00;4.73;;;2.10;;
10432;SDS011;5263;48.680;9.004;2023-03-07T15:32:37;1.53;;;1.40;;
10432;SDS011;5263;48.680;9.004;2023-03-07T15:37:32;2.83;;;2.17;;
10432;SDS011;5263;48.680;9.004;2023-03-07T15:40:00;2.47;;;2.07;;
10432;SDS011;5263;48.680;9.004;2023-03-07T15:42:32;3.77;;;2.17;;
10432;SDS011;5263;48.680;9.004;2023-03-07T15:44:59;3.17;;;2.60;;
10432;SDS011;5263;48.680;9.004;2023-03-07T15:47:27;2.67;;;2.23;;
10432;SDS011;5263;48.680;9.004;2023-03-07T15:49:55;4.40;;;2.77;;
10432;SDS011;5263;48.680;9.004;2023-03-07T15:55:00;3.83;;;2.07;;
10432;SDS011;5263;48.680;9.004;2023-03-07T16:00:20;3.13;;;2.23;;
10432;SDS011;5263;48.680;9.004;2023-03-07T16:05:41;4.03;;;2.17;;
10432;SDS011;5263;48.680;9.004;2023-03-07T16:08:11;4.23;;;3.47;;
10432;SDS011;5263;48.680;9.004;2023-03-07T16:10:49;4.97;;;2.70;;
10432;SDS011;5263;48.680;9.004;2023-03-07T16:13:22;2.83;;;2.53;;
10432;SDS011;5263;48.680;9.004;2023-03-07T16:15:58;3.00;;;2.70;;
10432;SDS011;5263;48.680;9.004;2023-03-07T16:18:25;2.13;;;1.93;;
10432;SDS011;5263;48.680;9.004;2023-03-07T16:20:52;3.03;;;2.63;;
10432;SDS011;5263;48.680;9.004;2023-03-07T16:23:17;2.83;;;2.30;;
10432;SDS011;5263;48.680;9.004;2023-03-07T16:25:43;3.90;;;3.07;;
10432;SDS011;5263;48.680;9.004;2023-03-07T16:28:09;4.57;;;3.23;;
10432;SDS011;5263;48.680;9.004;2023-03-07T16:30:36;8.13;;;3.23;;
10432;SDS011;5263;48.680;9.004;2023-03-07T16:33:01;5.00;;;2.70;;
10432;SDS011;5263;48.680;9.004;2023-03-07T16:35:27;4.33;;;3.00;;
10432;SDS011;5263;48.680;9.004;2023-03-07T16:37:53;5.33;;;3.20;;
10432;SDS011;5263;48.680;9.004;2023-03-07T16:40:20;5.67;;;3.23;;
10432;SDS011;5263;48.680;9.004;2023-03-07T16:42:47;6.33;;;2.70;;
10432;SDS011;5263;48.680;9.004;2023-03-07T16:47:40;3.63;;;2.60;;
10432;SDS011;5263;48.680;9.004;2023-03-07T16:50:11;4.13;;;2.50;;
10432;SDS011;5263;48.680;9.004;2023-03-07T16:52:38;6.13;;;3.47;;
10432;SDS011;5263;48.680;9.004;2023-03-07T16:55:04;4.47;;;2.40;;
10432;SDS011;5263;48.680;9.004;2023-03-07T16:57:29;2.60;;;2.30;;
10432;SDS011;5263;48.680;9.004;2023-03-07T16:59:55;6.40;;;2.77;;
10432;SDS011;5263;48.680;9.004;2023-03-07T17:02:21;5.43;;;2.70;;
10432;SDS011;5263;48.680;9.004;2023-03-07T17:04:48;3.90;;;3.13;;
10432;SDS011;5263;48.680;9.004;2023-03-07T17:07:15;5.50;;;3.00;;
10432;SDS011;5263;48.680;9.004;2023-03-07T17:09:42;6.50;;;3.13;;
10432;SDS011;5263;48.680;9.004;2023-03-07T17:12:08;3.40;;;2.53;;
10432;SDS011;5263;48.680;9.004;2023-03-07T17:14:35;3.27;;;2.43;;
10432;SDS011;5263;48.680;9.004;2023-03-07T17:17:00;4.30;;;3.00;;
10432;SDS011;5263;48.680;9.004;2023-03-07T17:19:27;4.43;;;2.67;;
10432;SDS011;5263;48.680;9.004;2023-03-07T17:21:55;7.93;;;3.30;;
10432;SDS011;5263;48.680;9.004;2023-03-07T17:24:22;5.23;;;3.00;;
10432;SDS011;5263;48.680;9.004;2023-03-07T17:26:48;3.87;;;2.47;;
10432;SDS011;5263;48.680;9.004;2023-03-07T17:29:16;4.80;;;2.93;;
10432;SDS011;5263;48.680;9.004;2023-03-07T17:31:49;3.13;;;2.50;;
10432;SDS011;5263;48.680;9.004;2023-03-07T17:34:25;4.67;;;2.30;;